This is the latest recevied weather packets stored in our database for station/object W3TMB. If no packets are shown the sender has not sent any weather packets the latest 10 day(s).
| Time | Temp. | Humidity | Pressure | Rain* | Wind** | Luminosity | Snow |
|---|---|---|---|---|---|---|---|
| 1777580786 | 13.33° C | 68% | 1006.8 hPa | 0 mm | - | 258 W/m² | - |
| 1777580483 | 12.78° C | 68% | 1006.8 hPa | 0 mm | - | 338 W/m² | - |
| 1777580177 | 13.33° C | 69% | 1006.4 hPa | 0 mm | - | 207 W/m² | - |
| 1777579874 | 12.78° C | 69% | 1006.5 hPa | 0 mm | - | 282 W/m² | - |
| 1777579574 | 12.78° C | 69% | 1006.4 hPa | 0 mm | - | 120 W/m² | - |
| 1777579268 | 12.78° C | 68% | 1006.5 hPa | 0 mm | - | 44 W/m² | - |
| 1777578964 | 13.33° C | 67% | 1006.2 hPa | 0 mm | - | 35 W/m² | - |
| 1777578659 | 13.89° C | 65% | 1006.2 hPa | 0 mm | - | 50 W/m² | - |
| 1777578358 | 13.89° C | 65% | 1006 hPa | 0 mm | - | 41 W/m² | - |
| 1777578055 | 13.89° C | 63% | 1005.9 hPa | 0 mm | - | 56 W/m² | - |
| 1777577749 | 14.44° C | 63% | 1005.8 hPa | 0 mm | - | 139 W/m² | - |
| 1777577446 | 14.44° C | 63% | 1005.8 hPa | 0 mm | - | 144 W/m² | - |
| 1777577144 | 15° C | 61% | 1005.8 hPa | 0 mm | - | 189 W/m² | - |
| 1777576840 | 15° C | 62% | 1005.7 hPa | 0 mm | - | 280 W/m² | - |
| 1777576539 | 15° C | 60% | 1005.6 hPa | 0 mm | - | 215 W/m² | - |
| 1777576236 | 15.56° C | 57% | 1005.5 hPa | 0 mm | - | 211 W/m² | - |
| 1777575932 | 15° C | 60% | 1005.7 hPa | 0 mm | - | 649 W/m² | - |
| 1777575628 | 15° C | 60% | 1005.7 hPa | 0 mm | - | 395 W/m² | - |
| 1777575324 | 15° C | 60% | 1005.8 hPa | 0 mm | - | 238 W/m² | - |
| 1777575020 | 15.56° C | 61% | 1005.7 hPa | 0 mm | - | 228 W/m² | - |
| 1777574716 | 15.56° C | 59% | 1005.9 hPa | 0 mm | - | 849 W/m² | - |
| 1777574414 | 14.44° C | 62% | 1006.2 hPa | 0 mm | - | 608 W/m² | - |
| 1777574109 | 14.44° C | 63% | 1006.1 hPa | 0 mm | - | 350 W/m² | - |
| 1777573804 | 13.89° C | 64% | 1006.1 hPa | 0 mm | - | 280 W/m² | - |
| 1777573500 | 13.89° C | 63% | 1006.2 hPa | 0 mm | - | 161 W/m² | - |
* Rain latest hour (hover to see other rain measurements)
** Current wind speed in m/s (hover to see current wind gust speed)